Noel, MO (64854)

12:46 AM CST on February 09, 2016 (GMT -0600)
FryeComp -2 Mi/S SWC | | Change Station
CLOSE
Current Station
Personal Weather Station
Location: Gravette, AR
Elevation: 1138 ft
Nearby Weather Stations

Elev 1138 ft 36.48 °N, 94.61 °W | Updated 0 second ago

Partly Cloudy
Partly Cloudy
31.9 °F
Feels Like 25 °F
N
7.0
Wind Variable Wind from NNW
Gusts 17.0 mph

Today
High -- | Low -- °F
--% Chance of Precip.
Yesterday
High -- | Low -- °F
Precip. -- in
Pressure 30.15 in
Visibility 10.0 miles
Clouds Clear
Windchill 25 °F
Dew Point 20 °F
Humidity 60%
Rainfall 0.00 in
Snow Depth Not available.
7:12 AM 5:51 PM
New Moon, 1% visible
METAR KGMJ 090635Z AUTO 29006KT 10SM CLR 01/M06 A3015 RMK AO2
Pressure 30.15 in
Visibility 10.0 miles
Clouds Clear
Windchill 25 °F
Dew Point 20 °F
Humidity 60%
Rainfall 0.00 in
Snow Depth Not available.
7:12 AM 5:51 PM
New Moon, 1% visible
METAR KGMJ 090635Z AUTO 29006KT 10SM CLR 01/M06 A3015 RMK AO2

10-Day Weather Forecast

Almanac

Astronomy

Feb. 09, 2016 Rise Set
Actual Time
Civil Twilight
Nautical Twilight
Astronomical Twilight
Moon
Length of Visible Light
Length of Day
Tomorrow will be .
, % of the Moon is Illuminated

Today's Extremes

State Highs State Lows

Community

WunderPhotos

Upload Photos

1,891,571 photos uploaded!

WunderBlog® & News

Nearby

Air Quality

  Air Quality AQ Index Pollutant
Not available.

Snow Depth

Station Depth Elevation

Earthquake Activity

City Distance Mag. Time & Date
Minimum magnitude displayed is 2.5.

Coastal Water Temperatures

Place Temperature

Stations

Nearby Weather Stations

Station Location Temp. Windchill Dew Point Humidity Wind Precip. Elev Updated Type
                   

Watches & Warnings

There are currently no watches in effect.